sensor_id;sensor_type;location;lat;lon;timestamp;temperature;humidity
5956;DHT22;3004;48.080;11.600;2023-03-14T01:31:58;8.70;99.90
5956;DHT22;3004;48.080;11.600;2023-03-14T01:34:35;8.70;99.90
5956;DHT22;3004;48.080;11.600;2023-03-14T01:37:10;8.70;99.90
5956;DHT22;3004;48.080;11.600;2023-03-14T01:39:41;8.60;99.90
5956;DHT22;3004;48.080;11.600;2023-03-14T01:42:10;8.60;99.90
5956;DHT22;3004;48.080;11.600;2023-03-14T01:44:52;8.60;99.90
5956;DHT22;3004;48.080;11.600;2023-03-14T01:47:21;8.60;99.90
5956;DHT22;3004;48.080;11.600;2023-03-14T01:49:51;8.40;99.90
5956;DHT22;3004;48.080;11.600;2023-03-14T01:52:22;8.50;99.90
5956;DHT22;3004;48.080;11.600;2023-03-14T01:54:55;8.50;99.90
5956;DHT22;3004;48.080;11.600;2023-03-14T01:57:28;8.50;99.90
5956;DHT22;3004;48.080;11.600;2023-03-14T02:00:03;8.40;99.90
5956;DHT22;3004;48.080;11.600;2023-03-14T02:02:55;8.50;99.90
5956;DHT22;3004;48.080;11.600;2023-03-14T02:05:25;8.40;99.90
5956;DHT22;3004;48.080;11.600;2023-03-14T02:07:56;8.40;99.90
5956;DHT22;3004;48.080;11.600;2023-03-14T02:10:31;8.40;99.90
5956;DHT22;3004;48.080;11.600;2023-03-14T02:13:04;8.40;99.90
5956;DHT22;3004;48.080;11.600;2023-03-14T02:15:34;8.40;99.90
5956;DHT22;3004;48.080;11.600;2023-03-14T02:18:06;8.40;99.90
5956;DHT22;3004;48.080;11.600;2023-03-14T02:20:41;8.30;99.90
5956;DHT22;3004;48.080;11.600;2023-03-14T02:23:16;8.30;99.90
5956;DHT22;3004;48.080;11.600;2023-03-14T02:25:53;8.30;99.90
5956;DHT22;3004;48.080;11.600;2023-03-14T02:28:27;8.30;99.90
5956;DHT22;3004;48.080;11.600;2023-03-14T02:30:56;8.30;99.90
5956;DHT22;3004;48.080;11.600;2023-03-14T02:33:25;8.10;99.90
5956;DHT22;3004;48.080;11.600;2023-03-14T02:36:27;8.10;99.90
5956;DHT22;3004;48.080;11.600;2023-03-14T02:39:03;8.10;99.90
5956;DHT22;3004;48.080;11.600;2023-03-14T02:51:34;7.90;99.90
5956;DHT22;3004;48.080;11.600;2023-03-14T02:54:06;7.90;99.90
5956;DHT22;3004;48.080;11.600;2023-03-14T02:56:33;7.90;99.90
5956;DHT22;3004;48.080;11.600;2023-03-14T02:59:02;7.90;99.90
5956;DHT22;3004;48.080;11.600;2023-03-14T03:01:31;7.90;99.90
5956;DHT22;3004;48.080;11.600;2023-03-14T03:04:02;7.80;99.90
5956;DHT22;3004;48.080;11.600;2023-03-14T03:06:53;7.80;99.90
5956;DHT22;3004;48.080;11.600;2023-03-14T03:09:22;7.80;99.90
5956;DHT22;3004;48.080;11.600;2023-03-14T03:11:52;7.80;99.90
5956;DHT22;3004;48.080;11.600;2023-03-14T03:14:44;7.80;99.90
5956;DHT22;3004;48.080;11.600;2023-03-14T03:17:12;7.70;99.90
5956;DHT22;3004;48.080;11.600;2023-03-14T03:19:51;7.70;99.90
5956;DHT22;3004;48.080;11.600;2023-03-14T03:25:50;7.50;99.90
5956;DHT22;3004;48.080;11.600;2023-03-14T03:28:23;7.50;99.90
5956;DHT22;3004;48.080;11.600;2023-03-14T03:31:05;7.50;99.90
5956;DHT22;3004;48.080;11.600;2023-03-14T03:33:40;7.50;99.90
5956;DHT22;3004;48.080;11.600;2023-03-14T03:36:10;7.40;99.90
5956;DHT22;3004;48.080;11.600;2023-03-14T03:38:39;7.40;99.90
5956;DHT22;3004;48.080;11.600;2023-03-14T03:41:07;7.40;99.90
5956;DHT22;3004;48.080;11.600;2023-03-14T03:43:39;7.40;99.90
5956;DHT22;3004;48.080;11.600;2023-03-14T03:46:21;7.40;99.90
5956;DHT22;3004;48.080;11.600;2023-03-14T03:48:54;7.40;99.90
5956;DHT22;3004;48.080;11.600;2023-03-14T03:51:46;7.30;99.90
5956;DHT22;3004;48.080;11.600;2023-03-14T03:54:21;7.20;99.90
5956;DHT22;3004;48.080;11.600;2023-03-14T03:56:50;7.20;99.90
5956;DHT22;3004;48.080;11.600;2023-03-14T03:59:19;7.20;99.90
5956;DHT22;3004;48.080;11.600;2023-03-14T04:01:58;7.20;99.90
5956;DHT22;3004;48.080;11.600;2023-03-14T04:04:34;7.20;99.90
5956;DHT22;3004;48.080;11.600;2023-03-14T04:09:45;7.00;99.90
5956;DHT22;3004;48.080;11.600;2023-03-14T04:12:14;7.00;99.90
5956;DHT22;3004;48.080;11.600;2023-03-14T04:14:45;7.10;99.90
5956;DHT22;3004;48.080;11.600;2023-03-14T04:17:29;7.10;99.90
5956;DHT22;3004;48.080;11.600;2023-03-14T04:20:12;7.00;99.90
5956;DHT22;3004;48.080;11.600;2023-03-14T04:22:41;6.90;99.90
5956;DHT22;3004;48.080;11.600;2023-03-14T04:25:24;6.90;99.90
5956;DHT22;3004;48.080;11.600;2023-03-14T04:31:22;6.90;99.90
5956;DHT22;3004;48.080;11.600;2023-03-14T04:44:53;6.80;99.90
5956;DHT22;3004;48.080;11.600;2023-03-14T04:47:21;6.80;99.90
5956;DHT22;3004;48.080;11.600;2023-03-14T04:49:48;6.80;99.90
5956;DHT22;3004;48.080;11.600;2023-03-14T04:52:16;6.80;99.90
5956;DHT22;3004;48.080;11.600;2023-03-14T04:54:43;6.80;99.90
5956;DHT22;3004;48.080;11.600;2023-03-14T04:57:10;6.90;99.90
5956;DHT22;3004;48.080;11.600;2023-03-14T04:59:42;6.90;99.90
5956;DHT22;3004;48.080;11.600;2023-03-14T05:02:10;6.90;99.90
5956;DHT22;3004;48.080;11.600;2023-03-14T05:04:39;6.90;99.90
5956;DHT22;3004;48.080;11.600;2023-03-14T05:07:06;6.80;99.90
5956;DHT22;3004;48.080;11.600;2023-03-14T05:09:35;6.80;99.90
5956;DHT22;3004;48.080;11.600;2023-03-14T05:12:04;6.80;99.90
5956;DHT22;3004;48.080;11.600;2023-03-14T05:14:32;6.80;99.90
5956;DHT22;3004;48.080;11.600;2023-03-14T05:17:01;6.90;99.90
5956;DHT22;3004;48.080;11.600;2023-03-14T05:19:30;6.80;99.90
5956;DHT22;3004;48.080;11.600;2023-03-14T05:21:59;6.80;99.90
5956;DHT22;3004;48.080;11.600;2023-03-14T05:24:26;6.80;99.90
5956;DHT22;3004;48.080;11.600;2023-03-14T05:26:53;6.70;99.90
5956;DHT22;3004;48.080;11.600;2023-03-14T05:29:27;6.70;99.90
5956;DHT22;3004;48.080;11.600;2023-03-14T05:31:59;6.70;99.90
5956;DHT22;3004;48.080;11.600;2023-03-14T05:34:30;6.70;99.90
5956;DHT22;3004;48.080;11.600;2023-03-14T05:36:57;6.80;99.90
5956;DHT22;3004;48.080;11.600;2023-03-14T05:39:25;6.80;99.90
5956;DHT22;3004;48.080;11.600;2023-03-14T05:41:53;6.80;99.90
5956;DHT22;3004;48.080;11.600;2023-03-14T05:44:28;6.70;99.90
5956;DHT22;3004;48.080;11.600;2023-03-14T05:46:55;6.80;99.90
5956;DHT22;3004;48.080;11.600;2023-03-14T05:49:22;6.80;99.90
5956;DHT22;3004;48.080;11.600;2023-03-14T05:51:54;6.80;99.90
5956;DHT22;3004;48.080;11.600;2023-03-14T05:54:21;6.70;99.90
5956;DHT22;3004;48.080;11.600;2023-03-14T05:56:48;6.70;99.90
5956;DHT22;3004;48.080;11.600;2023-03-14T05:59:15;6.80;99.90
5956;DHT22;3004;48.080;11.600;2023-03-14T06:01:44;6.80;99.90
5956;DHT22;3004;48.080;11.600;2023-03-14T06:04:11;6.80;99.90
5956;DHT22;3004;48.080;11.600;2023-03-14T06:06:38;6.80;99.90
5956;DHT22;3004;48.080;11.600;2023-03-14T06:09:07;6.80;99.90
5956;DHT22;3004;48.080;11.600;2023-03-14T06:11:34;6.80;99.90
5956;DHT22;3004;48.080;11.600;2023-03-14T06:14:01;6.90;99.90
5956;DHT22;3004;48.080;11.600;2023-03-14T06:16:28;6.90;99.90
5956;DHT22;3004;48.080;11.600;2023-03-14T06:18:57;6.80;99.90
5956;DHT22;3004;48.080;11.600;2023-03-14T06:21:25;6.80;99.90
5956;DHT22;3004;48.080;11.600;2023-03-14T06:23:54;6.80;99.90
5956;DHT22;3004;48.080;11.600;2023-03-14T06:26:25;6.70;99.90
5956;DHT22;3004;48.080;11.600;2023-03-14T06:28:56;6.70;99.90
5956;DHT22;3004;48.080;11.600;2023-03-14T06:31:26;6.60;99.90
5956;DHT22;3004;48.080;11.600;2023-03-14T06:33:59;6.60;99.90
5956;DHT22;3004;48.080;11.600;2023-03-14T06:36:28;6.70;99.90
5956;DHT22;3004;48.080;11.600;2023-03-14T06:38:57;6.70;99.90
5956;DHT22;3004;48.080;11.600;2023-03-14T06:41:26;6.70;99.90
5956;DHT22;3004;48.080;11.600;2023-03-14T06:43:55;6.80;99.90
5956;DHT22;3004;48.080;11.600;2023-03-14T06:46:34;6.80;99.90
5956;DHT22;3004;48.080;11.600;2023-03-14T06:49:01;6.80;99.90
5956;DHT22;3004;48.080;11.600;2023-03-14T06:51:28;6.90;99.90
5956;DHT22;3004;48.080;11.600;2023-03-14T06:53:55;6.90;99.90
5956;DHT22;3004;48.080;11.600;2023-03-14T06:56:26;7.00;99.90
5956;DHT22;3004;48.080;11.600;2023-03-14T06:58:54;7.00;99.90
5956;DHT22;3004;48.080;11.600;2023-03-14T07:01:23;7.00;99.90
5956;DHT22;3004;48.080;11.600;2023-03-14T07:03:56;7.00;99.90
5956;DHT22;3004;48.080;11.600;2023-03-14T07:06:24;7.00;99.90
5956;DHT22;3004;48.080;11.600;2023-03-14T07:08:56;7.00;99.90
5956;DHT22;3004;48.080;11.600;2023-03-14T07:11:24;7.00;99.90
5956;DHT22;3004;48.080;11.600;2023-03-14T07:13:52;7.00;99.90
5956;DHT22;3004;48.080;11.600;2023-03-14T07:16:22;7.10;99.90
5956;DHT22;3004;48.080;11.600;2023-03-14T07:18:49;7.10;99.90
5956;DHT22;3004;48.080;11.600;2023-03-14T07:21:17;7.10;99.90
5956;DHT22;3004;48.080;11.600;2023-03-14T07:23:46;7.10;99.90
5956;DHT22;3004;48.080;11.600;2023-03-14T07:26:13;7.00;99.90
5956;DHT22;3004;48.080;11.600;2023-03-14T07:28:42;7.10;99.90
5956;DHT22;3004;48.080;11.600;2023-03-14T07:31:11;7.10;99.90
5956;DHT22;3004;48.080;11.600;2023-03-14T07:33:40;7.10;99.90
5956;DHT22;3004;48.080;11.600;2023-03-14T07:36:08;7.20;99.90
5956;DHT22;3004;48.080;11.600;2023-03-14T07:38:38;7.20;99.90
5956;DHT22;3004;48.080;11.600;2023-03-14T07:41:06;7.20;99.90
5956;DHT22;3004;48.080;11.600;2023-03-14T07:43:42;7.30;99.90
5956;DHT22;3004;48.080;11.600;2023-03-14T07:46:15;7.40;99.90
5956;DHT22;3004;48.080;11.600;2023-03-14T07:48:43;7.50;99.90
5956;DHT22;3004;48.080;11.600;2023-03-14T07:51:10;7.60;99.90
5956;DHT22;3004;48.080;11.600;2023-03-14T07:53:37;7.60;99.90
5956;DHT22;3004;48.080;11.600;2023-03-14T07:56:13;7.70;99.90
5956;DHT22;3004;48.080;11.600;2023-03-14T07:58:40;7.80;99.90
5956;DHT22;3004;48.080;11.600;2023-03-14T08:01:07;7.90;99.90
5956;DHT22;3004;48.080;11.600;2023-03-14T08:03:37;8.00;99.90
5956;DHT22;3004;48.080;11.600;2023-03-14T08:06:05;8.00;99.90
